sensor_id;sensor_type;location;lat;lon;timestamp;pressure;altitude;pressure_sealevel;temperature
20867;BMP280;10593;48.398;10.698;2023-12-04T00:00:41;96392.69;;;1.85
20867;BMP280;10593;48.398;10.698;2023-12-04T00:03:07;96389.28;;;1.83
20867;BMP280;10593;48.398;10.698;2023-12-04T00:05:33;96386.69;;;1.81
20867;BMP280;10593;48.398;10.698;2023-12-04T00:07:59;96379.94;;;1.79
20867;BMP280;10593;48.398;10.698;2023-12-04T00:10:24;96379.94;;;1.79
20867;BMP280;10593;48.398;10.698;2023-12-04T00:12:51;96381.59;;;1.77
20867;BMP280;10593;48.398;10.698;2023-12-04T00:15:19;96388.31;;;1.76
20867;BMP280;10593;48.398;10.698;2023-12-04T00:17:45;96383.16;;;1.72
20867;BMP280;10593;48.398;10.698;2023-12-04T00:20:10;96382.31;;;1.73
20867;BMP280;10593;48.398;10.698;2023-12-04T00:22:37;96378.91;;;1.71
20867;BMP280;10593;48.398;10.698;2023-12-04T00:25:05;96386.50;;;1.69
20867;BMP280;10593;48.398;10.698;2023-12-04T00:27:31;96378.00;;;1.67
20867;BMP280;10593;48.398;10.698;2023-12-04T00:29:57;96372.06;;;1.65
20867;BMP280;10593;48.398;10.698;2023-12-04T00:32:23;96366.13;;;1.63
20867;BMP280;10593;48.398;10.698;2023-12-04T00:34:49;96361.03;;;1.60
20867;BMP280;10593;48.398;10.698;2023-12-04T00:37:14;96364.38;;;1.61
20867;BMP280;10593;48.398;10.698;2023-12-04T00:39:40;96360.16;;;1.58
20867;BMP280;10593;48.398;10.698;2023-12-04T00:42:06;96353.34;;;1.56
20867;BMP280;10593;48.398;10.698;2023-12-04T00:44:32;96351.63;;;1.55
20867;BMP280;10593;48.398;10.698;2023-12-04T00:46:57;96347.34;;;1.52
20867;BMP280;10593;48.398;10.698;2023-12-04T00:49:23;96344.81;;;1.51
20867;BMP280;10593;48.398;10.698;2023-12-04T00:51:49;96343.94;;;1.49
20867;BMP280;10593;48.398;10.698;2023-12-04T00:54:15;96327.84;;;1.47
20867;BMP280;10593;48.398;10.698;2023-12-04T00:56:42;96333.78;;;1.47
20867;BMP280;10593;48.398;10.698;2023-12-04T00:59:09;96332.03;;;1.45
20867;BMP280;10593;48.398;10.698;2023-12-04T01:01:37;96332.03;;;1.43
20867;BMP280;10593;48.398;10.698;2023-12-04T01:04:04;96336.22;;;1.41
20867;BMP280;10593;48.398;10.698;2023-12-04T01:06:30;96339.53;;;1.39
20867;BMP280;10593;48.398;10.698;2023-12-04T01:08:56;96331.94;;;1.40
20867;BMP280;10593;48.398;10.698;2023-12-04T01:11:22;96336.97;;;1.37
20867;BMP280;10593;48.398;10.698;2023-12-04T01:13:49;96342.88;;;1.38
20867;BMP280;10593;48.398;10.698;2023-12-04T01:16:15;96341.19;;;1.37
20867;BMP280;10593;48.398;10.698;2023-12-04T01:18:41;96338.66;;;1.37
20867;BMP280;10593;48.398;10.698;2023-12-04T01:21:08;96335.25;;;1.35
20867;BMP280;10593;48.398;10.698;2023-12-04T01:23:35;96327.66;;;1.35
20867;BMP280;10593;48.398;10.698;2023-12-04T01:26:03;96313.25;;;1.34
20867;BMP280;10593;48.398;10.698;2023-12-04T01:28:28;96309.03;;;1.33
20867;BMP280;10593;48.398;10.698;2023-12-04T01:30:54;96309.03;;;1.33
20867;BMP280;10593;48.398;10.698;2023-12-04T01:33:20;96305.66;;;1.32
20867;BMP280;10593;48.398;10.698;2023-12-04T01:35:46;96309.03;;;1.33
20867;BMP280;10593;48.398;10.698;2023-12-04T01:38:11;96298.91;;;1.31
20867;BMP280;10593;48.398;10.698;2023-12-04T01:40:37;96302.28;;;1.32
20867;BMP280;10593;48.398;10.698;2023-12-04T01:43:03;96304.78;;;1.30
20867;BMP280;10593;48.398;10.698;2023-12-04T01:45:28;96293.78;;;1.28
20867;BMP280;10593;48.398;10.698;2023-12-04T01:47:55;96295.41;;;1.26
20867;BMP280;10593;48.398;10.698;2023-12-04T01:50:21;96296.25;;;1.25
20867;BMP280;10593;48.398;10.698;2023-12-04T01:52:47;96288.66;;;1.24
20867;BMP280;10593;48.398;10.698;2023-12-04T01:55:15;96281.84;;;1.21
20867;BMP280;10593;48.398;10.698;2023-12-04T01:57:41;96277.66;;;1.22
20867;BMP280;10593;48.398;10.698;2023-12-04T02:00:08;96269.97;;;1.19
20867;BMP280;10593;48.398;10.698;2023-12-04T02:02:41;96276.75;;;1.18
20867;BMP280;10593;48.398;10.698;2023-12-04T02:05:11;96268.28;;;1.16
20867;BMP280;10593;48.398;10.698;2023-12-04T02:07:41;96260.66;;;1.15
20867;BMP280;10593;48.398;10.698;2023-12-04T02:10:07;96271.59;;;1.14
20867;BMP280;10593;48.398;10.698;2023-12-04T02:12:34;96261.44;;;1.12
20867;BMP280;10593;48.398;10.698;2023-12-04T02:15:00;96269.88;;;1.13
20867;BMP280;10593;48.398;10.698;2023-12-04T02:17:28;96260.59;;;1.12
20867;BMP280;10593;48.398;10.698;2023-12-04T02:19:54;96263.94;;;1.11
20867;BMP280;10593;48.398;10.698;2023-12-04T02:22:20;96258.91;;;1.11
20867;BMP280;10593;48.398;10.698;2023-12-04T02:24:47;96256.38;;;1.11
20867;BMP280;10593;48.398;10.698;2023-12-04T02:27:20;96250.44;;;1.09
20867;BMP280;10593;48.398;10.698;2023-12-04T02:29:53;96252.97;;;1.09
20867;BMP280;10593;48.398;10.698;2023-12-04T02:32:23;96248.72;;;1.09
20867;BMP280;10593;48.398;10.698;2023-12-04T02:34:50;96252.97;;;1.09
20867;BMP280;10593;48.398;10.698;2023-12-04T02:37:17;96255.50;;;1.10
20867;BMP280;10593;48.398;10.698;2023-12-04T02:39:44;96261.38;;;1.09
20867;BMP280;10593;48.398;10.698;2023-12-04T02:42:11;96263.91;;;1.09
20867;BMP280;10593;48.398;10.698;2023-12-04T02:44:39;96258.03;;;1.09
20867;BMP280;10593;48.398;10.698;2023-12-04T02:47:05;96258.03;;;1.09
20867;BMP280;10593;48.398;10.698;2023-12-04T02:49:30;96256.31;;;1.08
20867;BMP280;10593;48.398;10.698;2023-12-04T02:51:56;96254.56;;;1.07
20867;BMP280;10593;48.398;10.698;2023-12-04T02:54:22;96254.56;;;1.07
20867;BMP280;10593;48.398;10.698;2023-12-04T02:56:49;96248.69;;;1.06
20867;BMP280;10593;48.398;10.698;2023-12-04T02:59:15;96249.53;;;1.07
20867;BMP280;10593;48.398;10.698;2023-12-04T03:01:40;96248.69;;;1.06
20867;BMP280;10593;48.398;10.698;2023-12-04T03:04:09;96236.88;;;1.05
20867;BMP280;10593;48.398;10.698;2023-12-04T03:06:34;96232.66;;;1.06
20867;BMP280;10593;48.398;10.698;2023-12-04T03:09:00;96219.13;;;1.04
20867;BMP280;10593;48.398;10.698;2023-12-04T03:11:26;96221.66;;;1.04
20867;BMP280;10593;48.398;10.698;2023-12-04T03:13:51;96218.25;;;1.02
20867;BMP280;10593;48.398;10.698;2023-12-04T03:16:18;96225.84;;;1.02
20867;BMP280;10593;48.398;10.698;2023-12-04T03:18:44;96218.19;;;0.99
20867;BMP280;10593;48.398;10.698;2023-12-04T03:21:11;96224.94;;;0.98
20867;BMP280;10593;48.398;10.698;2023-12-04T03:23:37;96223.22;;;0.96
20867;BMP280;10593;48.398;10.698;2023-12-04T03:26:03;96214.75;;;0.95
20867;BMP280;10593;48.398;10.698;2023-12-04T03:28:29;96222.31;;;0.94
20867;BMP280;10593;48.398;10.698;2023-12-04T03:30:55;96217.25;;;0.92
20867;BMP280;10593;48.398;10.698;2023-12-04T03:33:20;96211.22;;;0.87
20867;BMP280;10593;48.398;10.698;2023-12-04T03:35:46;96201.09;;;0.86
20867;BMP280;10593;48.398;10.698;2023-12-04T03:38:12;96204.47;;;0.86
20867;BMP280;10593;48.398;10.698;2023-12-04T03:40:38;96195.97;;;0.81
20867;BMP280;10593;48.398;10.698;2023-12-04T03:43:04;96203.59;;;0.83
20867;BMP280;10593;48.398;10.698;2023-12-04T03:45:29;96206.13;;;0.83
20867;BMP280;10593;48.398;10.698;2023-12-04T03:47:55;96200.19;;;0.81
20867;BMP280;10593;48.398;10.698;2023-12-04T03:50:21;96201.75;;;0.76
20867;BMP280;10593;48.398;10.698;2023-12-04T03:52:46;96206.84;;;0.79
20867;BMP280;10593;48.398;10.698;2023-12-04T03:55:12;96193.34;;;0.77
20867;BMP280;10593;48.398;10.698;2023-12-04T03:57:38;96194.16;;;0.76
20867;BMP280;10593;48.398;10.698;2023-12-04T04:00:05;96185.72;;;0.74
20867;BMP280;10593;48.398;10.698;2023-12-04T04:02:30;96184.00;;;0.73
20867;BMP280;10593;48.398;10.698;2023-12-04T04:04:56;96193.28;;;0.74
20867;BMP280;10593;48.398;10.698;2023-12-04T04:07:22;96184.84;;;0.72
20867;BMP280;10593;48.398;10.698;2023-12-04T04:09:50;96181.44;;;0.71
20867;BMP280;10593;48.398;10.698;2023-12-04T04:12:16;96178.88;;;0.68
20867;BMP280;10593;48.398;10.698;2023-12-04T04:14:41;96175.47;;;0.66
20867;BMP280;10593;48.398;10.698;2023-12-04T04:17:07;96168.66;;;0.64
20867;BMP280;10593;48.398;10.698;2023-12-04T04:19:32;96167.78;;;0.62
20867;BMP280;10593;48.398;10.698;2023-12-04T04:21:58;96153.41;;;0.58
20867;BMP280;10593;48.398;10.698;2023-12-04T04:24:24;96146.66;;;0.57
20867;BMP280;10593;48.398;10.698;2023-12-04T04:26:49;96137.22;;;0.50
20867;BMP280;10593;48.398;10.698;2023-12-04T04:29:15;96154.97;;;0.51
20867;BMP280;10593;48.398;10.698;2023-12-04T04:31:41;96146.47;;;0.48
20867;BMP280;10593;48.398;10.698;2023-12-04T04:34:06;96150.66;;;0.46
20867;BMP280;10593;48.398;10.698;2023-12-04T04:36:32;96148.06;;;0.43
20867;BMP280;10593;48.398;10.698;2023-12-04T04:38:57;96154.78;;;0.42
20867;BMP280;10593;48.398;10.698;2023-12-04T04:41:23;96133.66;;;0.39
20867;BMP280;10593;48.398;10.698;2023-12-04T04:43:49;96130.25;;;0.37
20867;BMP280;10593;48.398;10.698;2023-12-04T04:46:14;96131.06;;;0.36
20867;BMP280;10593;48.398;10.698;2023-12-04T04:48:41;96131.03;;;0.33
20867;BMP280;10593;48.398;10.698;2023-12-04T04:51:07;96135.25;;;0.34
20867;BMP280;10593;48.398;10.698;2023-12-04T04:53:32;96131.84;;;0.32
20867;BMP280;10593;48.398;10.698;2023-12-04T04:55:59;96133.50;;;0.30
20867;BMP280;10593;48.398;10.698;2023-12-04T04:58:25;96145.31;;;0.31
20867;BMP280;10593;48.398;10.698;2023-12-04T05:00:51;96141.03;;;0.28
20867;BMP280;10593;48.398;10.698;2023-12-04T05:03:16;96146.03;;;0.25
20867;BMP280;10593;48.398;10.698;2023-12-04T05:05:42;96148.56;;;0.25
20867;BMP280;10593;48.398;10.698;2023-12-04T05:08:08;96131.72;;;0.26
20867;BMP280;10593;48.398;10.698;2023-12-04T05:10:33;96135.06;;;0.25
20867;BMP280;10593;48.398;10.698;2023-12-04T05:12:59;96140.97;;;0.25
20867;BMP280;10593;48.398;10.698;2023-12-04T05:15:25;96132.47;;;0.22
20867;BMP280;10593;48.398;10.698;2023-12-04T05:17:51;96125.78;;;0.22
20867;BMP280;10593;48.398;10.698;2023-12-04T05:20:17;96128.25;;;0.21
20867;BMP280;10593;48.398;10.698;2023-12-04T05:22:42;96134.19;;;0.21
20867;BMP280;10593;48.398;10.698;2023-12-04T05:25:08;96138.38;;;0.21
20867;BMP280;10593;48.398;10.698;2023-12-04T05:27:34;96140.00;;;0.19
20867;BMP280;10593;48.398;10.698;2023-12-04T05:29:59;96149.28;;;0.20
20867;BMP280;10593;48.398;10.698;2023-12-04T05:32:25;96148.41;;;0.18
20867;BMP280;10593;48.398;10.698;2023-12-04T05:34:51;96139.13;;;0.17
20867;BMP280;10593;48.398;10.698;2023-12-04T05:37:16;96144.19;;;0.17
20867;BMP280;10593;48.398;10.698;2023-12-04T05:39:42;96135.72;;;0.15
20867;BMP280;10593;48.398;10.698;2023-12-04T05:42:08;96128.09;;;0.13
20867;BMP280;10593;48.398;10.698;2023-12-04T05:44:34;96129.81;;;0.14
20867;BMP280;10593;48.398;10.698;2023-12-04T05:47:00;96137.34;;;0.13
20867;BMP280;10593;48.398;10.698;2023-12-04T05:49:26;96129.72;;;0.10
20867;BMP280;10593;48.398;10.698;2023-12-04T05:51:52;96132.25;;;0.10
20867;BMP280;10593;48.398;10.698;2023-12-04T05:54:17;96130.53;;;0.09
20867;BMP280;10593;48.398;10.698;2023-12-04T05:56:43;96118.78;;;0.09
20867;BMP280;10593;48.398;10.698;2023-12-04T05:59:09;96123.78;;;0.08
20867;BMP280;10593;48.398;10.698;2023-12-04T06:01:34;96117.81;;;0.04
20867;BMP280;10593;48.398;10.698;2023-12-04T06:04:00;96120.34;;;0.03
20867;BMP280;10593;48.398;10.698;2023-12-04T06:06:26;96119.50;;;0.04
20867;BMP280;10593;48.398;10.698;2023-12-04T06:08:52;96118.66;;;0.03
20867;BMP280;10593;48.398;10.698;2023-12-04T06:11:18;96116.94;;;0.02
20867;BMP280;10593;48.398;10.698;2023-12-04T06:13:44;96112.72;;;0.01
20867;BMP280;10593;48.398;10.698;2023-12-04T06:16:09;96101.69;;;-0.02
20867;BMP280;10593;48.398;10.698;2023-12-04T06:18:36;96097.56;;;0.00
20867;BMP280;10593;48.398;10.698;2023-12-04T06:21:03;96095.81;;;-0.01
20867;BMP280;10593;48.398;10.698;2023-12-04T06:23:29;96086.56;;;-0.02
20867;BMP280;10593;48.398;10.698;2023-12-04T06:25:55;96083.19;;;-0.03
20867;BMP280;10593;48.398;10.698;2023-12-04T06:28:21;96087.38;;;-0.03
20867;BMP280;10593;48.398;10.698;2023-12-04T06:30:47;96078.94;;;-0.05
20867;BMP280;10593;48.398;10.698;2023-12-04T06:33:14;96062.06;;;-0.06
20867;BMP280;10593;48.398;10.698;2023-12-04T06:35:41;96067.94;;;-0.07
20867;BMP280;10593;48.398;10.698;2023-12-04T06:38:07;96065.38;;;-0.10
20867;BMP280;10593;48.398;10.698;2023-12-04T06:40:34;96057.81;;;-0.10
20867;BMP280;10593;48.398;10.698;2023-12-04T06:43:00;96060.28;;;-0.11
20867;BMP280;10593;48.398;10.698;2023-12-04T06:45:26;96062.75;;;-0.14
20867;BMP280;10593;48.398;10.698;2023-12-04T06:47:54;96067.03;;;-0.12
20867;BMP280;10593;48.398;10.698;2023-12-04T06:50:20;96069.50;;;-0.13
20867;BMP280;10593;48.398;10.698;2023-12-04T06:52:46;96060.19;;;-0.17
20867;BMP280;10593;48.398;10.698;2023-12-04T06:55:12;96066.09;;;-0.15
20867;BMP280;10593;48.398;10.698;2023-12-04T06:57:38;96065.22;;;-0.16
20867;BMP280;10593;48.398;10.698;2023-12-04T07:00:05;96067.75;;;-0.17
20867;BMP280;10593;48.398;10.698;2023-12-04T07:02:34;96066.88;;;-0.18
20867;BMP280;10593;48.398;10.698;2023-12-04T07:04:59;96065.19;;;-0.19
20867;BMP280;10593;48.398;10.698;2023-12-04T07:07:25;96060.09;;;-0.20
20867;BMP280;10593;48.398;10.698;2023-12-04T07:09:51;96055.03;;;-0.22
20867;BMP280;10593;48.398;10.698;2023-12-04T07:12:16;96065.97;;;-0.21
20867;BMP280;10593;48.398;10.698;2023-12-04T07:14:42;96060.03;;;-0.25
20867;BMP280;10593;48.398;10.698;2023-12-04T07:17:08;96064.25;;;-0.24
20867;BMP280;10593;48.398;10.698;2023-12-04T07:19:34;96066.78;;;-0.24
20867;BMP280;10593;48.398;10.698;2023-12-04T07:22:00;96052.47;;;-0.25
20867;BMP280;10593;48.398;10.698;2023-12-04T07:24:26;96043.19;;;-0.26
20867;BMP280;10593;48.398;10.698;2023-12-04T07:26:52;96044.03;;;-0.25
20867;BMP280;10593;48.398;10.698;2023-12-04T07:29:17;96049.03;;;-0.27
20867;BMP280;10593;48.398;10.698;2023-12-04T07:31:43;96045.66;;;-0.27
20867;BMP280;10593;48.398;10.698;2023-12-04T07:34:09;96038.94;;;-0.27
20867;BMP280;10593;48.398;10.698;2023-12-04T07:36:35;96027.13;;;-0.29
20867;BMP280;10593;48.398;10.698;2023-12-04T07:39:00;96027.94;;;-0.30
20867;BMP280;10593;48.398;10.698;2023-12-04T07:41:26;96024.59;;;-0.29
20867;BMP280;10593;48.398;10.698;2023-12-04T07:43:52;96021.22;;;-0.30
20867;BMP280;10593;48.398;10.698;2023-12-04T07:46:17;96021.22;;;-0.30
20867;BMP280;10593;48.398;10.698;2023-12-04T07:48:43;96021.22;;;-0.30
20867;BMP280;10593;48.398;10.698;2023-12-04T07:51:11;96017.00;;;-0.31
20867;BMP280;10593;48.398;10.698;2023-12-04T07:53:37;96013.63;;;-0.31
20867;BMP280;10593;48.398;10.698;2023-12-04T07:56:04;96008.59;;;-0.31
20867;BMP280;10593;48.398;10.698;2023-12-04T07:58:30;96002.69;;;-0.32
20867;BMP280;10593;48.398;10.698;2023-12-04T08:00:57;96009.41;;;-0.31
20867;BMP280;10593;48.398;10.698;2023-12-04T08:03:23;96013.63;;;-0.31
20867;BMP280;10593;48.398;10.698;2023-12-04T08:05:52;96016.16;;;-0.31
20867;BMP280;10593;48.398;10.698;2023-12-04T08:08:18;96025.38;;;-0.32
20867;BMP280;10593;48.398;10.698;2023-12-04T08:10:45;96026.25;;;-0.31
20867;BMP280;10593;48.398;10.698;2023-12-04T08:13:11;96027.09;;;-0.31
20867;BMP280;10593;48.398;10.698;2023-12-04T08:15:36;96025.44;;;-0.30
20867;BMP280;10593;48.398;10.698;2023-12-04T08:18:02;96033.00;;;-0.29
20867;BMP280;10593;48.398;10.698;2023-12-04T08:20:28;96026.25;;;-0.30
20867;BMP280;10593;48.398;10.698;2023-12-04T08:22:53;96035.53;;;-0.29
20867;BMP280;10593;48.398;10.698;2023-12-04T08:25:20;96039.75;;;-0.28
20867;BMP280;10593;48.398;10.698;2023-12-04T08:27:46;96038.94;;;-0.27
20867;BMP280;10593;48.398;10.698;2023-12-04T08:30:13;96031.38;;;-0.27
20867;BMP280;10593;48.398;10.698;2023-12-04T08:32:39;96032.22;;;-0.26
20867;BMP280;10593;48.398;10.698;2023-12-04T08:35:05;96028.09;;;-0.23
20867;BMP280;10593;48.398;10.698;2023-12-04T08:37:31;96024.75;;;-0.22
20867;BMP280;10593;48.398;10.698;2023-12-04T08:39:57;96027.28;;;-0.22
20867;BMP280;10593;48.398;10.698;2023-12-04T08:42:23;96034.91;;;-0.19
20867;BMP280;10593;48.398;10.698;2023-12-04T08:44:48;96036.59;;;-0.19
20867;BMP280;10593;48.398;10.698;2023-12-04T08:47:14;96037.47;;;-0.16
20867;BMP280;10593;48.398;10.698;2023-12-04T08:49:40;96030.72;;;-0.18
20867;BMP280;10593;48.398;10.698;2023-12-04T08:52:07;96025.69;;;-0.17
20867;BMP280;10593;48.398;10.698;2023-12-04T08:54:33;96024.03;;;-0.15
20867;BMP280;10593;48.398;10.698;2023-12-04T08:56:59;96024.06;;;-0.13
20867;BMP280;10593;48.398;10.698;2023-12-04T08:59:26;96013.16;;;-0.12
20867;BMP280;10593;48.398;10.698;2023-12-04T09:01:51;96010.66;;;-0.11
20867;BMP280;10593;48.398;10.698;2023-12-04T09:04:17;96008.16;;;-0.11
20867;BMP280;10593;48.398;10.698;2023-12-04T09:06:43;95996.41;;;-0.09
20867;BMP280;10593;48.398;10.698;2023-12-04T09:09:08;95993.00;;;-0.09
20867;BMP280;10593;48.398;10.698;2023-12-04T09:11:34;95985.47;;;-0.08
20867;BMP280;10593;48.398;10.698;2023-12-04T09:14:00;95969.50;;;-0.07
20867;BMP280;10593;48.398;10.698;2023-12-04T09:16:25;95965.31;;;-0.06
20867;BMP280;10593;48.398;10.698;2023-12-04T09:18:51;95962.81;;;-0.05
20867;BMP280;10593;48.398;10.698;2023-12-04T09:21:18;95951.00;;;-0.06
20867;BMP280;10593;48.398;10.698;2023-12-04T09:23:44;95954.41;;;-0.05
20867;BMP280;10593;48.398;10.698;2023-12-04T09:26:16;95956.94;;;-0.04
20867;BMP280;10593;48.398;10.698;2023-12-04T09:28:42;95963.72;;;-0.02
20867;BMP280;10593;48.398;10.698;2023-12-04T09:31:11;95982.31;;;0.02
20867;BMP280;10593;48.398;10.698;2023-12-04T09:33:37;95978.06;;;0.01
20867;BMP280;10593;48.398;10.698;2023-12-04T09:36:03;95981.53;;;0.06
20867;BMP280;10593;48.398;10.698;2023-12-04T09:38:29;95970.59;;;0.07
20867;BMP280;10593;48.398;10.698;2023-12-04T09:40:59;95965.53;;;0.07
20867;BMP280;10593;48.398;10.698;2023-12-04T09:43:30;95962.25;;;0.11
20867;BMP280;10593;48.398;10.698;2023-12-04T09:45:57;95955.53;;;0.11
20867;BMP280;10593;48.398;10.698;2023-12-04T09:48:26;95947.16;;;0.14
20867;BMP280;10593;48.398;10.698;2023-12-04T09:50:53;95948.03;;;0.16
20867;BMP280;10593;48.398;10.698;2023-12-04T09:53:20;95941.28;;;0.15
20867;BMP280;10593;48.398;10.698;2023-12-04T09:55:49;95944.72;;;0.20
20867;BMP280;10593;48.398;10.698;2023-12-04T09:58:19;95939.72;;;0.21
20867;BMP280;10593;48.398;10.698;2023-12-04T10:00:46;95940.59;;;0.23
20867;BMP280;10593;48.398;10.698;2023-12-04T10:03:11;95931.41;;;0.27
20867;BMP280;10593;48.398;10.698;2023-12-04T10:05:44;95924.69;;;0.29
20867;BMP280;10593;48.398;10.698;2023-12-04T10:08:13;95915.44;;;0.31
20867;BMP280;10593;48.398;10.698;2023-12-04T10:10:38;95916.31;;;0.33
20867;BMP280;10593;48.398;10.698;2023-12-04T10:13:05;95910.41;;;0.32
20867;BMP280;10593;48.398;10.698;2023-12-04T10:15:31;95910.47;;;0.35
20867;BMP280;10593;48.398;10.698;2023-12-04T10:17:57;95906.34;;;0.40
20867;BMP280;10593;48.398;10.698;2023-12-04T10:20:23;95888.66;;;0.40
20867;BMP280;10593;48.398;10.698;2023-12-04T10:22:59;95894.59;;;0.44
20867;BMP280;10593;48.398;10.698;2023-12-04T10:25:30;95887.91;;;0.46
20867;BMP280;10593;48.398;10.698;2023-12-04T10:28:11;95889.63;;;0.48
20867;BMP280;10593;48.398;10.698;2023-12-04T10:30:37;95892.97;;;0.49
20867;BMP280;10593;48.398;10.698;2023-12-04T10:33:06;95885.44;;;0.50
20867;BMP280;10593;48.398;10.698;2023-12-04T10:35:33;95876.22;;;0.54
20867;BMP280;10593;48.398;10.698;2023-12-04T10:38:04;95872.00;;;0.54
20867;BMP280;10593;48.398;10.698;2023-12-04T10:40:34;95877.97;;;0.58
20867;BMP280;10593;48.398;10.698;2023-12-04T10:43:22;95888.94;;;0.60
20867;BMP280;10593;48.398;10.698;2023-12-04T10:45:50;95877.16;;;0.62
20867;BMP280;10593;48.398;10.698;2023-12-04T10:48:18;95862.03;;;0.63
20867;BMP280;10593;48.398;10.698;2023-12-04T10:50:47;95856.16;;;0.66
20867;BMP280;10593;48.398;10.698;2023-12-04T10:53:15;95862.09;;;0.69
20867;BMP280;10593;48.398;10.698;2023-12-04T10:55:43;95850.34;;;0.71
20867;BMP280;10593;48.398;10.698;2023-12-04T10:58:14;95855.47;;;0.74
20867;BMP280;10593;48.398;10.698;2023-12-04T11:00:47;95857.16;;;0.75
20867;BMP280;10593;48.398;10.698;2023-12-04T11:03:32;95850.44;;;0.77
20867;BMP280;10593;48.398;10.698;2023-12-04T11:06:01;95853.81;;;0.79
20867;BMP280;10593;48.398;10.698;2023-12-04T11:08:35;95850.50;;;0.83
20867;BMP280;10593;48.398;10.698;2023-12-04T11:11:10;95842.94;;;0.85
20867;BMP280;10593;48.398;10.698;2023-12-04T11:13:42;95826.09;;;0.87
20867;BMP280;10593;48.398;10.698;2023-12-04T11:21:39;95815.19;;;0.91
20867;BMP280;10593;48.398;10.698;2023-12-04T11:24:07;95813.53;;;0.91
20867;BMP280;10593;48.398;10.698;2023-12-04T11:26:34;95827.06;;;0.95
20867;BMP280;10593;48.398;10.698;2023-12-04T11:29:03;95820.34;;;0.97
20867;BMP280;10593;48.398;10.698;2023-12-04T11:31:29;95834.69;;;0.98
20867;BMP280;10593;48.398;10.698;2023-12-04T11:34:02;95838.91;;;1.00
20867;BMP280;10593;48.398;10.698;2023-12-04T11:36:29;95831.34;;;1.02
20867;BMP280;10593;48.398;10.698;2023-12-04T11:38:54;95827.16;;;1.02
20867;BMP280;10593;48.398;10.698;2023-12-04T11:41:24;95837.28;;;1.05
20867;BMP280;10593;48.398;10.698;2023-12-04T11:43:51;95854.16;;;1.06
20867;BMP280;10593;48.398;10.698;2023-12-04T11:46:21;95843.22;;;1.07
20867;BMP280;10593;48.398;10.698;2023-12-04T11:48:54;95850.84;;;1.09
20867;BMP280;10593;48.398;10.698;2023-12-04T11:54:07;95836.53;;;1.11
20867;BMP280;10593;48.398;10.698;2023-12-04T11:56:33;95812.06;;;1.11
20867;BMP280;10593;48.398;10.698;2023-12-04T11:59:07;95811.25;;;1.14
20867;BMP280;10593;48.398;10.698;2023-12-04T12:01:35;95801.97;;;1.13
20867;BMP280;10593;48.398;10.698;2023-12-04T12:04:02;95812.13;;;1.16
20867;BMP280;10593;48.398;10.698;2023-12-04T12:06:29;95812.97;;;1.18
20867;BMP280;10593;48.398;10.698;2023-12-04T12:08:56;95799.50;;;1.19
20867;BMP280;10593;48.398;10.698;2023-12-04T12:11:24;95805.44;;;1.22
20867;BMP280;10593;48.398;10.698;2023-12-04T12:13:52;95801.25;;;1.23
20867;BMP280;10593;48.398;10.698;2023-12-04T12:16:18;95790.28;;;1.25
20867;BMP280;10593;48.398;10.698;2023-12-04T12:18:44;95778.50;;;1.26
20867;BMP280;10593;48.398;10.698;2023-12-04T12:21:10;95771.78;;;1.28
20867;BMP280;10593;48.398;10.698;2023-12-04T12:23:36;95768.44;;;1.30
20867;BMP280;10593;48.398;10.698;2023-12-04T12:26:02;95781.91;;;1.31
20867;BMP280;10593;48.398;10.698;2023-12-04T12:28:28;95779.41;;;1.32
20867;BMP280;10593;48.398;10.698;2023-12-04T12:30:55;95762.56;;;1.34
20867;BMP280;10593;48.398;10.698;2023-12-04T12:33:21;95750.78;;;1.35
20867;BMP280;10593;48.398;10.698;2023-12-04T12:35:51;95744.03;;;1.37
20867;BMP280;10593;48.398;10.698;2023-12-04T12:38:18;95756.72;;;1.40
20867;BMP280;10593;48.398;10.698;2023-12-04T12:40:44;95758.41;;;1.41
20867;BMP280;10593;48.398;10.698;2023-12-04T12:43:10;95738.19;;;1.42
20867;BMP280;10593;48.398;10.698;2023-12-04T12:45:43;95735.66;;;1.44
20867;BMP280;10593;48.398;10.698;2023-12-04T12:48:16;95728.91;;;1.46
20867;BMP280;10593;48.398;10.698;2023-12-04T12:50:48;95723.84;;;1.46
20867;BMP280;10593;48.398;10.698;2023-12-04T12:53:15;95718.78;;;1.46
20867;BMP280;10593;48.398;10.698;2023-12-04T12:55:41;95720.50;;;1.48
20867;BMP280;10593;48.398;10.698;2023-12-04T12:58:10;95716.31;;;1.50
20867;BMP280;10593;48.398;10.698;2023-12-04T13:00:36;95711.28;;;1.55
20867;BMP280;10593;48.398;10.698;2023-12-04T13:03:03;95707.06;;;1.57
20867;BMP280;10593;48.398;10.698;2023-12-04T13:05:28;95703.72;;;1.58
20867;BMP280;10593;48.398;10.698;2023-12-04T13:07:54;95691.91;;;1.60
20867;BMP280;10593;48.398;10.698;2023-12-04T13:10:21;95689.41;;;1.61
20867;BMP280;10593;48.398;10.698;2023-12-04T13:12:50;95676.78;;;1.63
20867;BMP280;10593;48.398;10.698;2023-12-04T13:15:18;95676.78;;;1.66
20867;BMP280;10593;48.398;10.698;2023-12-04T13:17:44;95682.69;;;1.68
20867;BMP280;10593;48.398;10.698;2023-12-04T13:20:10;95689.44;;;1.69
20867;BMP280;10593;48.398;10.698;2023-12-04T13:22:39;95695.38;;;1.71
20867;BMP280;10593;48.398;10.698;2023-12-04T13:25:06;95691.16;;;1.73
20867;BMP280;10593;48.398;10.698;2023-12-04T13:27:36;95681.03;;;1.73
20867;BMP280;10593;48.398;10.698;2023-12-04T13:30:06;95680.25;;;1.77
20867;BMP280;10593;48.398;10.698;2023-12-04T13:32:35;95671.81;;;1.78
20867;BMP280;10593;48.398;10.698;2023-12-04T13:35:02;95649.84;;;1.77
20867;BMP280;10593;48.398;10.698;2023-12-04T13:37:31;95667.59;;;1.80
20867;BMP280;10593;48.398;10.698;2023-12-04T13:39:57;95681.94;;;1.81
20867;BMP280;10593;48.398;10.698;2023-12-04T13:42:27;95685.34;;;1.84
20867;BMP280;10593;48.398;10.698;2023-12-04T13:45:11;95686.19;;;1.85
20867;BMP280;10593;48.398;10.698;2023-12-04T13:47:40;95673.53;;;1.86
20867;BMP280;10593;48.398;10.698;2023-12-04T13:50:07;95663.41;;;1.88
20867;BMP280;10593;48.398;10.698;2023-12-04T13:52:37;95660.03;;;1.90
20867;BMP280;10593;48.398;10.698;2023-12-04T13:55:04;95654.16;;;1.91
20867;BMP280;10593;48.398;10.698;2023-12-04T13:57:40;95652.47;;;1.93
20867;BMP280;10593;48.398;10.698;2023-12-04T14:00:24;95658.38;;;1.94
20867;BMP280;10593;48.398;10.698;2023-12-04T14:02:50;95666.84;;;1.96
20867;BMP280;10593;48.398;10.698;2023-12-04T14:05:19;95664.31;;;1.98
20867;BMP280;10593;48.398;10.698;2023-12-04T14:07:48;95646.59;;;1.97
20867;BMP280;10593;48.398;10.698;2023-12-04T14:10:14;95668.56;;;2.03
20867;BMP280;10593;48.398;10.698;2023-12-04T14:12:40;95658.44;;;2.03